createdAt,value
2018-01-03T00:00:32.668Z,1.50
2018-01-03T00:02:59.916Z,1.40
2018-01-03T00:05:27.198Z,1.10
2018-01-03T00:07:54.436Z,1.73
2018-01-03T00:10:21.795Z,1.20
2018-01-03T00:12:49.044Z,1.90
2018-01-03T00:15:16.502Z,1.80
2018-01-03T00:17:43.966Z,1.80
2018-01-03T00:20:11.225Z,1.90
2018-01-03T00:22:38.479Z,1.60
2018-01-03T00:25:05.744Z,1.77
2018-01-03T00:27:33.175Z,1.90
2018-01-03T00:30:00.445Z,1.37
2018-01-03T00:32:27.695Z,1.27
2018-01-03T00:34:54.973Z,1.00
2018-01-03T00:37:22.221Z,1.27
2018-01-03T00:39:49.489Z,1.90
2018-01-03T00:42:16.736Z,2.03
2018-01-03T00:44:44.008Z,1.27
2018-01-03T00:47:11.251Z,1.50
2018-01-03T00:49:38.563Z,1.90
2018-01-03T00:52:05.822Z,1.23
2018-01-03T00:54:33.089Z,1.47
2018-01-03T00:57:00.335Z,1.00
2018-01-03T00:59:27.614Z,1.63
2018-01-03T01:01:54.856Z,1.50
2018-01-03T01:04:22.257Z,2.30
2018-01-03T01:06:49.818Z,2.00
2018-01-03T01:09:17.299Z,1.50
2018-01-03T01:11:44.559Z,1.93
2018-01-03T01:14:11.833Z,2.60
2018-01-03T01:16:39.077Z,1.43
2018-01-03T01:19:06.339Z,1.80
2018-01-03T01:21:33.679Z,1.90
2018-01-03T01:24:00.987Z,1.60
2018-01-03T01:26:28.388Z,2.20
2018-01-03T01:28:55.740Z,2.20
2018-01-03T01:31:22.992Z,2.00
2018-01-03T01:33:50.259Z,1.80
2018-01-03T01:36:17.516Z,1.80
2018-01-03T01:38:44.857Z,2.53
2018-01-03T01:41:12.209Z,2.33
2018-01-03T01:43:39.460Z,2.17
2018-01-03T01:46:06.758Z,2.33
2018-01-03T01:48:34.697Z,2.10
2018-01-03T01:51:01.962Z,1.60
2018-01-03T01:53:29.207Z,1.83
2018-01-03T01:55:56.481Z,1.20
2018-01-03T01:58:23.728Z,1.20
2018-01-03T02:00:50.996Z,1.40
2018-01-03T02:03:18.254Z,1.90
2018-01-03T02:05:45.525Z,2.17
2018-01-03T02:08:13.132Z,1.60
2018-01-03T02:10:40.400Z,1.60
2018-01-03T08:55:17.727Z,1.20
2018-01-03T08:57:44.975Z,1.20
2018-01-03T09:00:12.259Z,1.57
2018-01-03T09:02:39.576Z,1.13
2018-01-03T09:05:06.824Z,1.20
2018-01-03T09:07:34.095Z,1.80
2018-01-03T09:10:01.348Z,1.73
2018-01-03T09:12:28.638Z,1.60
2018-01-03T09:14:55.879Z,1.80
2018-01-03T09:17:23.132Z,1.67
2018-01-03T09:19:50.454Z,2.00
2018-01-03T09:22:17.700Z,1.43
2018-01-03T09:24:44.984Z,2.07
2018-01-03T09:27:12.246Z,1.50
2018-01-03T09:29:39.570Z,2.33
2018-01-03T09:32:06.840Z,1.90
2018-01-03T09:34:34.120Z,1.90
2018-01-03T09:37:01.370Z,1.53
2018-01-03T09:39:28.648Z,1.50
2018-01-03T09:42:01.640Z,1.20
2018-01-03T09:44:28.898Z,1.57
2018-01-03T09:46:56.135Z,1.40
2018-01-03T09:49:23.411Z,1.77
2018-01-03T09:51:50.687Z,1.43
2018-01-03T09:54:18.042Z,1.50
2018-01-03T09:56:45.323Z,1.20
2018-01-03T09:59:12.577Z,1.50
2018-01-03T10:01:39.824Z,1.20
2018-01-03T10:06:40.679Z,0.57
2018-01-03T10:09:08.009Z,0.60
2018-01-03T10:11:35.252Z,0.60
2018-01-03T10:14:02.540Z,0.50
2018-01-03T10:16:29.829Z,0.50
2018-01-03T10:18:57.126Z,0.60
2018-01-03T10:21:24.401Z,0.50
2018-01-03T10:23:51.736Z,0.50
2018-01-03T10:26:19.001Z,0.73
2018-01-03T10:28:46.285Z,0.60
2018-01-03T10:31:13.531Z,0.70
2018-01-03T10:33:40.781Z,1.20
2018-01-03T10:36:08.117Z,0.90
2018-01-03T10:38:35.459Z,0.73
2018-01-03T10:41:02.708Z,0.80
2018-01-03T10:43:29.957Z,0.90
2018-01-03T10:45:57.320Z,0.70
2018-01-03T10:48:24.586Z,0.97
2018-01-03T10:50:51.865Z,1.20
2018-01-03T10:53:19.141Z,1.10
2018-01-03T10:55:46.436Z,1.00
2018-01-03T10:58:13.715Z,1.87
2018-01-03T11:00:40.963Z,1.10
2018-01-03T11:03:08.300Z,1.00
2018-01-03T11:05:35.552Z,2.30
2018-01-03T11:08:02.828Z,1.67
2018-01-03T11:10:30.164Z,1.83
2018-01-03T11:12:57.422Z,1.73
2018-01-03T11:15:24.688Z,2.17
2018-01-03T11:17:52.023Z,2.03
2018-01-03T11:20:19.316Z,1.90
2018-01-03T11:22:46.636Z,2.30
2018-01-03T11:25:13.917Z,2.47
2018-01-03T11:27:41.164Z,2.23
2018-01-03T11:30:08.463Z,2.00
2018-01-03T11:32:35.712Z,2.40
2018-01-03T11:35:02.972Z,2.17
2018-01-03T11:37:30.252Z,2.47
2018-01-03T11:39:57.527Z,2.60
2018-01-03T11:42:24.783Z,2.53
2018-01-03T11:44:52.063Z,2.30
2018-01-03T11:47:19.315Z,3.33
2018-01-03T11:49:46.595Z,3.40
2018-01-03T11:52:13.853Z,1.60
2018-01-03T11:54:41.128Z,2.10
2018-01-03T11:57:08.391Z,1.33
2018-01-03T11:59:35.665Z,1.80
2018-01-03T12:02:02.912Z,1.53
2018-01-03T12:04:30.187Z,1.87
2018-01-03T12:06:57.436Z,2.53
2018-01-03T12:09:24.757Z,1.93
2018-01-03T12:11:52.007Z,2.07
2018-01-03T12:14:19.267Z,2.67
2018-01-03T12:16:46.540Z,2.33
2018-01-03T12:19:13.818Z,2.70
2018-01-03T12:21:41.133Z,2.20
2018-01-03T12:24:08.413Z,2.30
2018-01-03T12:26:35.668Z,2.20
2018-01-03T12:29:02.922Z,2.60
2018-01-03T12:31:30.207Z,2.60
2018-01-03T12:33:57.472Z,2.90
2018-01-03T12:36:24.748Z,2.50
2018-01-03T12:38:52.028Z,2.20
2018-01-03T12:41:19.370Z,2.47
2018-01-03T12:43:46.636Z,2.80
2018-01-03T12:46:13.897Z,3.27
2018-01-03T12:48:41.184Z,2.20
2018-01-03T12:51:08.440Z,1.93
2018-01-03T12:53:35.723Z,3.07
2018-01-03T12:56:03.001Z,2.00
2018-01-03T12:58:30.257Z,3.17
2018-01-03T13:00:57.533Z,2.90
2018-01-03T13:03:24.808Z,3.60
2018-01-03T13:05:52.104Z,2.97
2018-01-03T13:08:19.357Z,3.73
2018-01-03T13:10:46.603Z,2.60
2018-01-03T13:13:13.957Z,2.43
2018-01-03T13:15:41.221Z,2.73
2018-01-03T13:18:08.512Z,3.70
2018-01-03T13:20:35.767Z,2.30
2018-01-03T13:23:03.021Z,3.60
2018-01-03T13:25:30.301Z,2.67
2018-01-03T13:27:57.585Z,2.70
2018-01-03T13:30:24.832Z,2.83
2018-01-03T13:32:52.111Z,2.77
2018-01-03T13:35:19.380Z,2.40
2018-01-03T13:37:46.653Z,2.00
2018-01-03T13:40:13.924Z,2.57
2018-01-03T13:42:41.300Z,2.77
2018-01-03T13:45:08.548Z,2.70
2018-01-03T13:47:35.807Z,2.63
2018-01-03T13:50:03.227Z,2.40
2018-01-03T13:52:30.531Z,2.47
2018-01-03T13:54:57.787Z,2.17
2018-01-03T13:57:25.068Z,3.10
2018-01-03T13:59:53.545Z,2.50
2018-01-03T14:02:20.839Z,2.93
2018-01-03T14:04:48.093Z,2.60
2018-01-03T14:07:15.373Z,2.40
2018-01-03T14:09:42.624Z,2.80
2018-01-03T14:12:09.925Z,2.00
2018-01-03T14:14:37.168Z,2.50
2018-01-03T14:17:04.422Z,2.70
2018-01-03T14:19:31.707Z,2.70
2018-01-03T14:21:58.963Z,2.40
2018-01-03T14:24:26.257Z,2.63
2018-01-03T14:26:53.503Z,2.47
2018-01-03T14:29:20.798Z,3.03
2018-01-03T14:31:48.052Z,2.63
2018-01-03T14:34:15.379Z,3.33
2018-01-03T14:36:42.676Z,3.47
2018-01-03T14:39:09.954Z,3.83
2018-01-03T14:41:37.232Z,3.50
2018-01-03T14:44:04.515Z,3.37
2018-01-03T14:46:31.845Z,3.00
2018-01-03T14:48:59.124Z,3.23
2018-01-03T14:51:26.447Z,2.63
2018-01-03T14:53:53.719Z,3.60
2018-01-03T14:56:21.056Z,2.97
2018-01-03T14:58:48.348Z,3.20
2018-01-03T15:01:15.608Z,3.43
2018-01-03T15:03:42.868Z,3.40
2018-01-03T15:06:10.143Z,2.80
2018-01-03T15:08:37.623Z,2.70
2018-01-03T15:11:04.905Z,3.27
2018-01-03T15:13:32.159Z,3.57
2018-01-03T15:15:59.435Z,2.63
2018-01-03T15:18:26.687Z,3.73
2018-01-03T15:20:54.000Z,2.47
2018-01-03T15:23:21.304Z,3.60
2018-01-03T15:25:48.511Z,3.13
2018-01-03T15:28:15.791Z,2.80
2018-01-03T15:30:43.123Z,3.20
2018-01-03T15:33:10.413Z,3.10
2018-01-03T15:35:37.668Z,3.00
2018-01-03T15:38:04.983Z,2.60
2018-01-03T15:40:32.339Z,2.40
2018-01-03T15:42:59.687Z,2.50
2018-01-03T15:45:26.970Z,2.40
2018-01-03T15:47:54.215Z,1.90
2018-01-03T15:50:21.552Z,2.70
2018-01-03T15:52:48.837Z,2.07
2018-01-03T15:55:16.093Z,2.53
2018-01-03T15:57:43.411Z,2.60
2018-01-03T16:00:10.673Z,3.33
2018-01-03T16:02:37.923Z,2.40
2018-01-03T16:05:05.203Z,3.57
2018-01-03T16:07:32.468Z,2.50
2018-01-03T16:09:59.761Z,2.60
2018-01-03T16:12:27.021Z,1.90
2018-01-03T16:14:54.272Z,2.43
2018-01-03T16:17:21.552Z,2.47
2018-01-03T16:19:48.799Z,2.33
2018-01-03T16:22:16.094Z,2.37
2018-01-03T16:24:43.339Z,2.60
2018-01-03T16:27:11.064Z,2.40
2018-01-03T16:29:38.340Z,2.20
2018-01-03T16:32:05.592Z,2.53
2018-01-03T16:34:32.888Z,3.00
2018-01-03T16:37:00.163Z,2.90
2018-01-03T16:39:27.412Z,2.73
2018-01-03T16:41:54.691Z,2.80
2018-01-03T16:44:21.949Z,2.77
2018-01-03T16:46:49.211Z,2.87
2018-01-03T16:49:16.552Z,2.90
2018-01-03T16:51:49.544Z,2.70
2018-01-03T16:54:16.901Z,3.07
2018-01-03T16:56:44.164Z,2.67
2018-01-03T16:59:11.432Z,2.57
2018-01-03T17:01:38.767Z,2.20
2018-01-03T17:04:06.052Z,2.50
2018-01-03T17:06:33.300Z,2.90
2018-01-03T17:09:00.625Z,2.17
2018-01-03T17:11:27.902Z,2.60
2018-01-03T17:13:55.148Z,2.43
2018-01-03T17:16:22.432Z,2.53
2018-01-03T17:18:49.692Z,2.77
2018-01-03T17:21:16.980Z,2.60
2018-01-03T17:23:44.247Z,2.10
2018-01-03T17:26:11.604Z,2.23
2018-01-03T17:28:38.899Z,2.67
2018-01-03T17:31:06.148Z,2.60
2018-01-03T17:33:33.392Z,3.27
2018-01-03T17:36:00.676Z,2.67
2018-01-03T17:38:27.959Z,2.23
2018-01-03T17:40:55.224Z,2.47
2018-01-03T17:43:22.485Z,3.20
2018-01-03T17:45:49.756Z,2.70
2018-01-03T17:48:17.005Z,3.57
2018-01-03T17:50:44.341Z,2.73
2018-01-03T17:53:11.691Z,3.03
2018-01-03T17:55:38.949Z,2.90
2018-01-03T17:58:06.233Z,3.50
2018-01-03T18:00:33.489Z,3.13
2018-01-03T18:03:00.813Z,3.50
2018-01-03T18:05:28.087Z,2.90
2018-01-03T18:07:55.368Z,3.40
2018-01-03T18:10:22.647Z,4.73
2018-01-03T18:12:49.925Z,3.67
2018-01-03T18:15:17.204Z,3.87
2018-01-03T18:17:44.466Z,2.90
2018-01-03T18:20:11.759Z,2.83
2018-01-03T18:22:39.012Z,3.87
2018-01-03T18:25:06.272Z,3.40
2018-01-03T18:27:33.655Z,3.60
2018-01-03T18:30:00.905Z,2.63
2018-01-03T18:32:28.174Z,2.80
2018-01-03T18:34:55.453Z,3.10
2018-01-03T18:37:22.723Z,2.83
2018-01-03T18:39:49.985Z,2.50
2018-01-03T18:42:17.259Z,3.27
2018-01-03T18:44:44.537Z,3.20
2018-01-03T18:47:11.884Z,2.30
2018-01-03T18:49:39.164Z,3.97
2018-01-03T18:52:06.420Z,3.23
2018-01-03T18:54:33.681Z,2.80
2018-01-03T18:57:00.967Z,3.20
2018-01-03T18:59:28.223Z,3.40
2018-01-03T19:01:55.502Z,3.50
2018-01-03T19:04:22.764Z,2.80
2018-01-03T19:06:50.039Z,2.50
2018-01-03T19:09:17.296Z,3.50
2018-01-03T19:11:44.579Z,2.87
2018-01-03T19:14:11.856Z,3.20
2018-01-03T19:16:39.120Z,3.50
2018-01-03T19:19:06.403Z,3.77
2018-01-03T19:21:33.661Z,3.40
2018-01-03T19:24:00.958Z,3.00
2018-01-03T19:26:28.208Z,2.90
2018-01-03T19:28:55.468Z,3.00
2018-01-03T19:31:22.740Z,2.40
2018-01-03T19:33:49.995Z,2.77
2018-01-03T19:36:17.271Z,3.50
2018-01-03T19:38:44.528Z,3.30
2018-01-03T19:41:11.804Z,3.40
2018-01-03T19:43:39.056Z,3.77
2018-01-03T19:46:06.337Z,3.83
2018-01-03T19:48:33.593Z,3.50
2018-01-03T19:51:00.856Z,2.23
2018-01-03T19:53:28.139Z,4.03
2018-01-03T19:55:55.386Z,3.43
2018-01-03T19:58:22.672Z,3.80
2018-01-03T20:00:49.924Z,3.97
2018-01-03T20:03:17.208Z,3.97
2018-01-03T20:05:44.488Z,4.40
2018-01-03T20:08:11.748Z,3.60
2018-01-03T20:10:39.032Z,4.93
2018-01-03T20:13:06.287Z,3.60
2018-01-03T20:15:33.626Z,3.70
2018-01-03T20:18:03.460Z,4.13
2018-01-03T20:20:30.787Z,4.27
2018-01-03T20:22:58.045Z,3.93
2018-01-03T20:25:25.325Z,4.80
2018-01-03T20:27:52.659Z,4.17
2018-01-03T20:30:19.942Z,4.13
2018-01-03T20:32:47.260Z,5.20
2018-01-03T20:35:14.574Z,4.60
2018-01-03T20:37:41.825Z,4.57
2018-01-03T20:40:09.116Z,4.43
2018-01-03T20:45:10.192Z,5.50
2018-01-03T20:47:37.472Z,4.70
2018-01-03T20:50:04.737Z,5.07
2018-01-03T20:52:31.984Z,4.50
2018-01-03T20:54:59.272Z,5.03
2018-01-03T20:57:26.531Z,4.53
2018-01-03T20:59:53.815Z,4.50
2018-01-03T21:02:21.072Z,5.20
2018-01-03T21:04:48.352Z,3.73
2018-01-03T21:07:15.662Z,3.60
2018-01-03T21:09:42.944Z,4.80
2018-01-03T21:12:10.272Z,4.20
2018-01-03T21:14:37.567Z,5.00
2018-01-03T21:17:04.834Z,4.83
2018-01-03T21:19:32.139Z,3.73
2018-01-03T21:21:59.419Z,4.03
2018-01-03T21:24:26.752Z,3.60
2018-01-03T21:26:54.032Z,5.43
2018-01-03T21:29:21.286Z,4.20
2018-01-03T21:31:48.583Z,4.70
2018-01-03T21:34:15.868Z,3.80
2018-01-03T21:36:43.125Z,4.37
2018-01-03T21:39:10.378Z,4.53
2018-01-03T21:41:37.657Z,3.57
2018-01-03T21:44:04.903Z,3.40
2018-01-03T21:46:32.201Z,3.60
2018-01-03T21:48:59.725Z,4.27
2018-01-03T21:51:27.011Z,3.80
2018-01-03T21:53:54.292Z,3.47
2018-01-03T21:56:21.552Z,3.00
2018-01-03T21:58:48.941Z,4.10
2018-01-03T22:01:16.248Z,4.53
2018-01-03T22:03:43.861Z,4.07
2018-01-03T22:06:11.241Z,2.87
2018-01-03T22:08:38.515Z,3.03
2018-01-03T22:11:05.792Z,4.10
2018-01-03T22:13:33.047Z,3.50
2018-01-03T22:16:00.330Z,4.17
2018-01-03T22:18:27.588Z,3.40
2018-01-03T22:20:54.879Z,3.27
2018-01-03T22:23:22.261Z,3.73
2018-01-03T22:25:49.519Z,4.73
2018-01-03T22:28:16.864Z,3.20
2018-01-03T22:30:44.151Z,4.33
2018-01-03T22:33:11.486Z,3.40
2018-01-03T22:35:38.831Z,3.20
2018-01-03T22:38:06.120Z,3.60
2018-01-03T22:40:33.450Z,4.00
2018-01-03T22:43:00.739Z,3.63
2018-01-03T22:45:27.991Z,3.87
2018-01-03T22:47:55.244Z,4.73
2018-01-03T22:50:22.559Z,4.50
2018-01-03T22:52:49.836Z,3.30
2018-01-03T22:55:17.097Z,2.83
2018-01-03T22:57:44.424Z,3.67
2018-01-03T23:00:11.706Z,3.77
2018-01-03T23:02:38.962Z,3.80
2018-01-03T23:05:06.244Z,3.83
2018-01-03T23:07:33.532Z,3.93
2018-01-03T23:10:00.784Z,4.20
2018-01-03T23:12:28.076Z,4.80
2018-01-03T23:14:55.339Z,3.60
2018-01-03T23:17:22.588Z,3.93
2018-01-03T23:19:49.864Z,2.33
2018-01-03T23:22:17.168Z,4.27
2018-01-03T23:24:44.448Z,4.60
2018-01-03T23:27:11.712Z,4.40
2018-01-03T23:29:39.029Z,3.70
2018-01-03T23:32:06.284Z,3.27
2018-01-03T23:34:33.569Z,4.00
2018-01-03T23:37:00.821Z,3.87
2018-01-03T23:39:28.108Z,4.03
2018-01-03T23:41:55.395Z,3.80
2018-01-03T23:44:22.740Z,3.00
2018-01-03T23:46:50.052Z,3.73
2018-01-03T23:49:17.295Z,3.97
2018-01-03T23:51:44.558Z,3.87
2018-01-03T23:54:12.104Z,4.07
2018-01-03T23:56:39.412Z,3.50
2018-01-03T23:59:06.787Z,3.63
